createdAt,value
2022-10-01T00:08:47.158Z,995.25
2022-10-01T00:18:53.480Z,995.28
2022-10-01T00:29:01.791Z,995.26
2022-10-01T00:39:08.250Z,995.14
2022-10-01T00:49:16.038Z,995.09
2022-10-01T00:59:22.033Z,995.06
2022-10-01T01:09:30.344Z,995.01
2022-10-01T01:19:36.764Z,994.84
2022-10-01T01:29:42.904Z,994.73
2022-10-01T01:39:49.556Z,994.67
2022-10-01T01:49:55.849Z,994.57
2022-10-01T02:00:02.528Z,994.49
2022-10-01T02:10:09.501Z,994.48
2022-10-01T02:20:14.789Z,994.34
2022-10-01T02:30:23.086Z,994.13
2022-10-01T02:40:29.490Z,994.12
2022-10-01T02:50:35.582Z,993.96
2022-10-01T03:00:41.777Z,993.76
2022-10-01T03:10:48.171Z,993.57
2022-10-01T03:20:54.528Z,993.45
2022-10-01T03:31:00.797Z,993.50
2022-10-01T03:41:06.891Z,993.40
2022-10-01T03:51:17.834Z,993.24
2022-10-01T04:01:26.400Z,993.14
2022-10-01T04:11:34.419Z,993.11
2022-10-01T04:21:40.697Z,992.98
2022-10-01T04:31:47.177Z,993.08
2022-10-01T04:41:53.512Z,993.11
2022-10-01T04:51:59.717Z,993.17
2022-10-01T05:02:06.272Z,993.07
2022-10-01T05:12:12.330Z,992.91
2022-10-01T05:22:18.690Z,992.80
2022-10-01T05:32:25.186Z,992.72
2022-10-01T05:42:30.853Z,992.65
2022-10-01T05:52:37.253Z,992.64
2022-10-01T06:02:43.307Z,992.40
2022-10-01T06:22:57.085Z,992.10
2022-10-01T06:33:03.689Z,992.05
2022-10-01T06:43:10.037Z,992.02
2022-10-01T06:53:17.751Z,991.97
2022-10-01T07:03:23.638Z,991.68
2022-10-01T07:13:29.678Z,991.51
2022-10-01T07:23:35.951Z,991.35
2022-10-01T07:33:42.867Z,991.37
2022-10-01T07:43:49.388Z,991.45
2022-10-01T07:53:55.942Z,991.28
2022-10-01T08:04:02.517Z,991.08
2022-10-01T08:14:09.260Z,990.77
2022-10-01T08:24:15.824Z,990.79
2022-10-01T08:34:23.125Z,990.78
2022-10-01T08:44:29.994Z,990.55
2022-10-01T08:54:37.043Z,990.45
2022-10-01T09:04:43.825Z,990.38
2022-10-01T09:14:50.028Z,990.30
2022-10-01T09:24:56.817Z,990.30
2022-10-01T09:35:04.788Z,990.25
2022-10-01T09:45:11.753Z,990.21
2022-10-01T09:55:19.061Z,990.25
2022-10-01T10:05:25.808Z,990.18
2022-10-01T10:15:32.590Z,990.10
2022-10-01T10:25:39.648Z,990.30
2022-10-01T10:35:46.687Z,990.52
2022-10-01T10:45:53.310Z,990.46
2022-10-01T10:55:59.833Z,990.38
2022-10-01T11:06:06.685Z,990.34
2022-10-01T11:16:13.216Z,990.54
2022-10-01T11:26:19.672Z,990.31
2022-10-01T11:36:26.691Z,990.37
2022-10-01T11:46:34.108Z,990.39
2022-10-01T11:56:41.731Z,990.32
2022-10-01T12:06:48.451Z,990.44
2022-10-01T12:16:55.086Z,990.40
2022-10-01T12:27:01.566Z,990.39
2022-10-01T12:37:07.888Z,990.40
2022-10-01T12:47:14.603Z,990.35
2022-10-01T12:57:21.205Z,990.51
2022-10-01T13:07:28.273Z,990.43
2022-10-01T13:17:35.138Z,990.50
2022-10-01T13:27:42.324Z,990.36
2022-10-01T13:37:48.658Z,990.53
2022-10-01T13:47:54.984Z,990.59
2022-10-01T13:58:01.263Z,990.66
2022-10-01T14:08:11.528Z,990.70
2022-10-01T14:18:17.704Z,990.78
2022-10-01T14:28:23.985Z,990.83
2022-10-01T14:38:29.750Z,990.80
2022-10-01T14:48:37.420Z,990.84
2022-10-01T14:58:42.755Z,990.87
2022-10-01T15:08:48.516Z,990.94
2022-10-01T15:18:56.404Z,991.04
2022-10-01T15:29:01.835Z,991.10
2022-10-01T15:39:09.482Z,991.17
2022-10-01T15:49:15.430Z,991.12
2022-10-01T15:59:22.792Z,991.40
2022-10-01T16:09:28.600Z,991.53
2022-10-01T16:19:36.488Z,991.64
2022-10-01T16:29:43.196Z,991.68
2022-10-01T16:39:50.671Z,991.84
2022-10-01T16:49:56.732Z,992.14
2022-10-01T17:00:04.837Z,992.26
2022-10-01T17:10:11.268Z,992.50
2022-10-01T17:20:18.945Z,992.58
2022-10-01T17:30:24.739Z,992.69
2022-10-01T17:40:32.127Z,992.87
2022-10-01T17:50:38.088Z,993.09
2022-10-01T18:00:46.380Z,993.30
2022-10-01T18:10:53.046Z,993.49
2022-10-01T18:20:59.464Z,993.66
2022-10-01T18:31:05.879Z,993.85
2022-10-01T18:41:13.495Z,993.91
2022-10-01T18:51:19.135Z,994.02
2022-10-01T19:01:25.618Z,994.20
2022-10-01T19:11:32.072Z,994.24
2022-10-01T19:21:38.506Z,994.31
2022-10-01T19:31:44.670Z,994.50
2022-10-01T19:41:51.551Z,994.71
2022-10-01T19:51:57.987Z,994.95
2022-10-01T20:02:05.644Z,995.12
2022-10-01T20:12:11.432Z,995.30
2022-10-01T20:22:16.873Z,995.52
2022-10-01T20:32:22.417Z,995.64
2022-10-01T20:42:30.427Z,995.69
2022-10-01T20:52:36.375Z,995.82
2022-10-01T21:02:44.260Z,996.00
2022-10-01T21:12:50.393Z,996.12
2022-10-01T21:23:00.239Z,996.23
2022-10-01T21:33:06.041Z,996.46
2022-10-01T21:44:30.680Z,996.69
2022-10-01T21:54:35.410Z,996.83
2022-10-01T22:04:43.600Z,996.87
2022-10-01T22:14:49.651Z,997.00
2022-10-01T22:24:56.098Z,997.17
2022-10-01T22:35:02.048Z,997.44
2022-10-01T22:45:08.197Z,997.55
2022-10-01T22:55:14.340Z,997.60
2022-10-01T23:05:20.536Z,997.76
2022-10-01T23:15:26.846Z,998.00
2022-10-01T23:25:34.896Z,998.08
2022-10-01T23:35:41.056Z,998.22
2022-10-01T23:45:47.409Z,998.38
2022-10-01T23:55:53.673Z,998.50
